KHBV

Jim Hogg County Airport

Hebbronville, Texas, USA
METAR KHBV 150030Z AUTO 14014G20KT 10SM SCT065 34/18 A2988 RMK AO2 T03350184
Observed Flight Rules
Aug-15 @ 00:30 UTC (37 minutes ago) Visual Flight Rules
Wind Visibility Clouds
140° at 14 knots
 Gusting to 20 knots
10 miles
  • Scattered at 6,500' AGL
Temperatures Readings
Current 34°C / 93°F
Dewpoint 18°C / 64°F
Humidity 39%
Altimeter 29.88" Hg
Pressure 1012 hPa
Elevation 202
METAR KHBV 150030Z AUTO 14014G20KT 10SM SCT065 34/18 A2988 RMK AO2 T03350184
Observed Flight Rules
Aug-15 @ 00:30 UTC
(37 minutes ago)
VFR
Wind Visibility
140° at 14 knots
 Gusting to 20 knots
10 miles
Clouds
  • Scattered at 6,500' AGL
Temperature Dewpoint
34°C / 93°F 18°C / 64°F
Humidity Altimeter Pressure
39% 29.88" Hg 1012 hPa